NB551 KLAX-KLAX
Flight info
| Callsign | NB551 |
|---|---|
| Flight time | N/A |
| Altitude | 3000 |
| Route | LAXX1 SLI |
| Aircraft | C172/L-SFG/C |
Departure
| Time | 2026-04-22 16:11 |
|---|---|
| Airport | Los Angeles International Airport (KLAX) |
Arrival
| Time | N/A |
|---|---|
| Airport | Los Angeles International Airport (KLAX) |
| Time | Latitude | Longitude | Altitude | Speed | Heading |
|---|---|---|---|---|---|
| 2026-04-22 15:51 | 33.94517 | -118.42992 | 99 ft | 0 kts | 83° |
| 2026-04-22 15:59 | 33.94517 | -118.42991 | 99 ft | 0 kts | 94° |
| 2026-04-22 15:59 | 33.94514 | -118.42992 | 99 ft | 1 kts | 243° |
| 2026-04-22 15:59 | 33.94511 | -118.43017 | 99 ft | 7 kts | 270° |
| 2026-04-22 16:00 | 33.94508 | -118.43079 | 99 ft | 8 kts | 261° |
| 2026-04-22 16:00 | 33.94512 | -118.43109 | 99 ft | 0 kts | 304° |
| 2026-04-22 16:00 | 33.94545 | -118.43115 | 100 ft | 4 kts | 13° |
| 2026-04-22 16:00 | 33.94555 | -118.43113 | 100 ft | 0 kts | 356° |
| 2026-04-22 16:01 | 33.94591 | -118.43146 | 101 ft | 13 kts | 281° |
| 2026-04-22 16:01 | 33.94589 | -118.43196 | 101 ft | 0 kts | 13° |
| 2026-04-22 16:01 | 33.94591 | -118.43192 | 101 ft | 3 kts | 67° |
| 2026-04-22 16:01 | 33.94597 | -118.43153 | 101 ft | 0 kts | 137° |
| 2026-04-22 16:02 | 33.94589 | -118.43174 | 101 ft | 0 kts | 348° |
| 2026-04-22 16:02 | 33.94600 | -118.43132 | 101 ft | 9 kts | 83° |
| 2026-04-22 16:03 | 33.94612 | -118.42982 | 101 ft | 17 kts | 85° |
| 2026-04-22 16:03 | 33.94618 | -118.42870 | 104 ft | 9 kts | 83° |
| 2026-04-22 16:03 | 33.94622 | -118.42838 | 104 ft | 0 kts | 83° |
| 2026-04-22 16:05 | 33.94624 | -118.42827 | 105 ft | 9 kts | 75° |
| 2026-04-22 16:05 | 33.94644 | -118.42645 | 105 ft | 32 kts | 84° |
| 2026-04-22 16:06 | 33.94674 | -118.42342 | 112 ft | 23 kts | 84° |
| 2026-04-22 16:06 | 33.94690 | -118.42182 | 112 ft | 15 kts | 80° |
| 2026-04-22 16:06 | 33.94699 | -118.42057 | 115 ft | 19 kts | 81° |
| 2026-04-22 16:06 | 33.94722 | -118.41846 | 115 ft | 31 kts | 84° |
| 2026-04-22 16:07 | 33.94754 | -118.41547 | 116 ft | 35 kts | 82° |
| 2026-04-22 16:07 | 33.94778 | -118.41412 | 117 ft | 9 kts | 71° |
| 2026-04-22 16:07 | 33.94791 | -118.41313 | 118 ft | 14 kts | 84° |
| 2026-04-22 16:07 | 33.94808 | -118.41175 | 119 ft | 20 kts | 82° |
| 2026-04-22 16:08 | 33.94824 | -118.40997 | 119 ft | 22 kts | 88° |
| 2026-04-22 16:08 | 33.94846 | -118.40791 | 118 ft | 22 kts | 82° |
| 2026-04-22 16:08 | 33.94872 | -118.40540 | 115 ft | 27 kts | 83° |
| 2026-04-22 16:08 | 33.94893 | -118.40345 | 114 ft | 25 kts | 82° |
| 2026-04-22 16:09 | 33.94905 | -118.40215 | 112 ft | 1 kts | 81° |
| 2026-04-22 16:09 | 33.94924 | -118.40098 | 111 ft | 19 kts | 86° |
| 2026-04-22 16:09 | 33.94935 | -118.40070 | 110 ft | 1 kts | 22° |
| 2026-04-22 16:10 | 33.94999 | -118.40083 | 110 ft | 31 kts | 319° |
| 2026-04-22 16:10 | 33.94987 | -118.40487 | 117 ft | 67 kts | 264° |
| 2026-04-22 16:10 | 33.94962 | -118.40865 | 197 ft | 68 kts | 268° |
| 2026-04-22 16:10 | 33.94973 | -118.41631 | 369 ft | 66 kts | 272° |
| 2026-04-22 16:11 | 33.94835 | -118.42155 | 462 ft | 70 kts | 258° |
| 2026-04-22 16:11 | 33.94746 | -118.42767 | 559 ft | 74 kts | 262° |
| 2026-04-22 16:11 | 33.94673 | -118.43402 | 644 ft | 78 kts | 264° |
| 2026-04-22 16:11 | 33.94647 | -118.44006 | 814 ft | 71 kts | 271° |
| 2026-04-22 16:12 | 33.94699 | -118.44566 | 946 ft | 67 kts | 310° |
| 2026-04-22 16:12 | 33.95100 | -118.44710 | 1098 ft | 57 kts | 22° |
| 2026-04-22 16:12 | 33.95320 | -118.44213 | 1126 ft | 69 kts | 80° |
| 2026-04-22 16:12 | 33.95338 | -118.43642 | 1261 ft | 72 kts | 94° |
| 2026-04-22 16:13 | 33.95267 | -118.42963 | 1361 ft | 81 kts | 104° |
| 2026-04-22 16:13 | 33.95169 | -118.42263 | 1473 ft | 87 kts | 94° |
| 2026-04-22 16:13 | 33.95167 | -118.41560 | 1650 ft | 85 kts | 92° |
| 2026-04-22 16:13 | 33.95028 | -118.40854 | 1779 ft | 89 kts | 111° |
| 2026-04-22 16:14 | 33.94738 | -118.40182 | 1945 ft | 88 kts | 119° |
| 2026-04-22 16:14 | 33.94516 | -118.39524 | 2103 ft | 88 kts | 116° |
| 2026-04-22 16:14 | 33.94202 | -118.38834 | 2153 ft | 98 kts | 101° |
| 2026-04-22 16:14 | 33.94252 | -118.37985 | 2221 ft | 105 kts | 77° |
| 2026-04-22 16:15 | 33.94412 | -118.37131 | 2362 ft | 103 kts | 75° |
| 2026-04-22 16:15 | 33.94568 | -118.36291 | 2512 ft | 101 kts | 77° |
| 2026-04-22 16:15 | 33.94698 | -118.35485 | 2663 ft | 95 kts | 77° |
| 2026-04-22 16:15 | 33.94812 | -118.34747 | 2894 ft | 85 kts | 77° |
| 2026-04-22 16:16 | 33.94921 | -118.34032 | 3040 ft | 85 kts | 77° |
| 2026-04-22 16:16 | 33.95023 | -118.33340 | 3187 ft | 84 kts | 77° |
| 2026-04-22 16:16 | 33.95139 | -118.32566 | 3173 ft | 101 kts | 77° |
| 2026-04-22 16:16 | 33.95241 | -118.31672 | 3167 ft | 112 kts | 82° |
| 2026-04-22 16:17 | 33.95302 | -118.30701 | 3163 ft | 118 kts | 82° |
| 2026-04-22 16:17 | 33.95370 | -118.29687 | 3159 ft | 122 kts | 83° |
| 2026-04-22 16:17 | 33.95438 | -118.28643 | 3158 ft | 124 kts | 83° |
| 2026-04-22 16:17 | 33.95536 | -118.27601 | 3154 ft | 125 kts | 83° |
| 2026-04-22 16:18 | 33.95231 | -118.26621 | 3150 ft | 130 kts | 130° |
| 2026-04-22 16:18 | 33.94414 | -118.26157 | 3149 ft | 134 kts | 174° |
| 2026-04-22 16:18 | 33.93539 | -118.26485 | 3150 ft | 134 kts | 218° |
| 2026-04-22 16:18 | 33.93078 | -118.27421 | 3152 ft | 132 kts | 262° |
| 2026-04-22 16:19 | 33.93182 | -118.28512 | 3159 ft | 130 kts | 287° |
| 2026-04-22 16:19 | 33.93425 | -118.29544 | 3159 ft | 130 kts | 289° |
| 2026-04-22 16:19 | 33.93559 | -118.30089 | 3098 ft | 134 kts | 289° |
| 2026-04-22 16:20 | 33.93821 | -118.31148 | 3153 ft | 130 kts | 289° |